createdAt,value
2023-08-18T00:01:00.324Z,99.90
2023-08-18T00:03:29.132Z,99.90
2023-08-18T00:05:57.804Z,99.90
2023-08-18T00:08:26.451Z,99.90
2023-08-18T00:10:55.200Z,99.90
2023-08-18T00:13:25.257Z,99.90
2023-08-18T00:15:53.996Z,99.90
2023-08-18T00:18:22.788Z,99.90
2023-08-18T00:20:52.291Z,99.90
2023-08-18T00:23:21.196Z,99.90
2023-08-18T00:25:49.880Z,99.90
2023-08-18T00:28:18.501Z,99.90
2023-08-18T00:30:48.580Z,99.90
2023-08-18T00:33:17.261Z,99.90
2023-08-18T00:35:45.911Z,99.90
2023-08-18T00:38:14.571Z,99.90
2023-08-18T00:40:43.484Z,99.90
2023-08-18T00:43:12.174Z,99.90
2023-08-18T00:45:41.260Z,99.90
2023-08-18T00:48:11.466Z,99.90
2023-08-18T00:50:40.377Z,99.90
2023-08-18T00:53:09.497Z,99.90
2023-08-18T00:55:38.262Z,99.90
2023-08-18T00:58:06.978Z,99.90
2023-08-18T01:00:35.651Z,99.90
2023-08-18T01:03:06.236Z,99.90
2023-08-18T01:05:36.280Z,99.90
2023-08-18T01:08:05.775Z,99.90
2023-08-18T01:10:39.043Z,99.90
2023-08-18T01:13:11.383Z,99.90
2023-08-18T01:15:41.330Z,99.90
2023-08-18T01:18:12.556Z,99.90
2023-08-18T01:20:43.068Z,99.90
2023-08-18T01:23:13.401Z,99.90
2023-08-18T01:25:42.350Z,99.90
2023-08-18T01:28:11.082Z,99.90
2023-08-18T01:30:42.910Z,99.90
2023-08-18T01:33:15.281Z,99.90
2023-08-18T01:35:45.661Z,99.90
2023-08-18T01:38:17.284Z,99.90
2023-08-18T01:40:46.306Z,99.90
2023-08-18T01:43:15.080Z,99.90
2023-08-18T01:45:43.746Z,99.90
2023-08-18T01:48:12.473Z,99.90
2023-08-18T01:50:41.493Z,99.90
2023-08-18T01:53:10.082Z,99.90
2023-08-18T01:55:40.191Z,99.90
2023-08-18T01:58:08.870Z,99.90
2023-08-18T02:00:37.613Z,99.90
2023-08-18T02:03:06.405Z,99.90
2023-08-18T02:05:35.567Z,99.90
2023-08-18T02:08:04.272Z,99.90
2023-08-18T02:10:33.020Z,99.90
2023-08-18T02:13:03.202Z,99.90
2023-08-18T02:15:32.283Z,99.90
2023-08-18T02:18:00.854Z,99.90
2023-08-18T02:20:29.508Z,99.90
2023-08-18T02:22:58.068Z,99.90
2023-08-18T02:25:26.875Z,99.90
2023-08-18T02:27:55.480Z,99.90
2023-08-18T02:30:25.599Z,99.90
2023-08-18T02:32:54.371Z,99.90
2023-08-18T02:35:23.580Z,99.90
2023-08-18T02:37:52.680Z,99.90
2023-08-18T02:40:21.366Z,99.90
2023-08-18T02:42:50.043Z,99.90
2023-08-18T02:45:18.663Z,99.90
2023-08-18T02:47:48.936Z,99.90
2023-08-18T02:50:17.643Z,99.90
2023-08-18T02:52:46.258Z,99.90
2023-08-18T02:55:15.046Z,99.90
2023-08-18T02:57:43.815Z,99.90
2023-08-18T03:00:13.353Z,99.90
2023-08-18T03:02:42.015Z,99.90
2023-08-18T03:05:12.452Z,99.90
2023-08-18T03:07:41.425Z,99.90
2023-08-18T03:10:10.478Z,99.90
2023-08-18T03:12:39.208Z,99.90
2023-08-18T03:15:08.525Z,99.90
2023-08-18T03:17:37.617Z,99.90
2023-08-18T03:20:08.733Z,99.90
2023-08-18T03:22:39.104Z,99.90
2023-08-18T03:25:08.091Z,99.90
2023-08-18T03:27:36.892Z,99.90
2023-08-18T03:30:06.067Z,99.90
2023-08-18T03:32:35.482Z,99.90
2023-08-18T03:35:04.304Z,99.90
2023-08-18T03:37:33.258Z,99.90
2023-08-18T03:40:05.965Z,99.90
2023-08-18T03:42:35.126Z,99.90
2023-08-18T03:45:03.870Z,99.90
2023-08-18T03:47:32.782Z,99.90
2023-08-18T03:50:02.903Z,99.90
2023-08-18T03:52:31.575Z,99.90
2023-08-18T03:55:00.201Z,99.90
2023-08-18T03:57:30.663Z,99.90
2023-08-18T03:59:59.541Z,99.90
2023-08-18T04:02:28.964Z,99.90
2023-08-18T04:04:57.862Z,99.90
2023-08-18T04:07:26.680Z,99.90
2023-08-18T04:09:55.378Z,99.90
2023-08-18T04:12:24.067Z,99.90
2023-08-18T04:14:54.267Z,99.90
2023-08-18T04:17:24.168Z,99.90
2023-08-18T04:19:54.137Z,99.90
2023-08-18T04:22:22.779Z,99.90
2023-08-18T04:24:52.206Z,99.90
2023-08-18T04:27:21.714Z,99.90
2023-08-18T04:29:50.475Z,99.90
2023-08-18T04:32:20.589Z,99.90
2023-08-18T04:34:49.194Z,99.90
2023-08-18T04:37:17.962Z,99.90
2023-08-18T04:39:46.582Z,99.90
2023-08-18T04:42:15.171Z,99.90
2023-08-18T04:44:44.353Z,99.90
2023-08-18T04:47:12.971Z,99.90
2023-08-18T04:49:43.425Z,99.90
2023-08-18T04:52:12.638Z,99.90
2023-08-18T04:54:41.694Z,99.90
2023-08-18T04:57:11.621Z,99.90
2023-08-18T04:59:40.242Z,99.90
2023-08-18T05:02:09.273Z,99.90
2023-08-18T05:04:37.849Z,99.90
2023-08-18T05:07:08.804Z,99.90
2023-08-18T05:09:37.427Z,99.90
2023-08-18T05:12:09.403Z,99.90
2023-08-18T05:14:38.091Z,99.90
2023-08-18T05:17:06.852Z,99.90
2023-08-18T05:19:35.482Z,99.90
2023-08-18T05:22:04.043Z,99.90
2023-08-18T05:24:34.411Z,99.90
2023-08-18T05:27:03.140Z,99.90
2023-08-18T05:29:31.878Z,99.90
2023-08-18T05:32:00.489Z,99.90
2023-08-18T05:34:29.158Z,99.90
2023-08-18T05:36:57.768Z,99.90
2023-08-18T05:39:26.420Z,99.90
2023-08-18T05:41:56.550Z,99.90
2023-08-18T05:44:25.146Z,99.90
2023-08-18T05:46:54.415Z,99.90
2023-08-18T05:49:24.012Z,99.90
2023-08-18T05:51:52.668Z,99.90
2023-08-18T05:54:21.238Z,99.90
2023-08-18T05:56:49.944Z,99.90
2023-08-18T05:59:20.183Z,99.90
2023-08-18T06:01:51.656Z,99.90
2023-08-18T06:04:20.328Z,99.90
2023-08-18T06:06:49.447Z,99.90
2023-08-18T06:09:18.148Z,99.90
2023-08-18T06:11:46.735Z,99.90
2023-08-18T06:14:15.433Z,99.90
2023-08-18T06:16:45.601Z,99.90
2023-08-18T06:19:14.436Z,99.90
2023-08-18T06:21:43.306Z,99.90
2023-08-18T06:24:11.888Z,99.90
2023-08-18T06:26:40.682Z,99.90
2023-08-18T06:29:09.272Z,99.90
2023-08-18T06:31:37.966Z,99.90
2023-08-18T06:34:08.314Z,99.90
2023-08-18T06:36:36.987Z,99.90
2023-08-18T06:39:05.946Z,99.90
2023-08-18T06:41:34.624Z,99.90
2023-08-18T06:44:03.405Z,99.90
2023-08-18T06:46:32.109Z,99.90
2023-08-18T06:49:02.422Z,99.90
2023-08-18T06:51:32.651Z,99.90
2023-08-18T06:54:01.322Z,99.90
2023-08-18T06:56:29.952Z,99.90
2023-08-18T06:58:59.706Z,99.90
2023-08-18T07:01:28.340Z,99.90
2023-08-18T07:03:57.161Z,99.90
2023-08-18T07:06:27.386Z,99.90
2023-08-18T07:08:57.636Z,99.90
2023-08-18T07:11:26.242Z,99.90
2023-08-18T07:13:54.918Z,99.90
2023-08-18T07:16:23.751Z,99.90
2023-08-18T07:18:52.391Z,99.90
2023-08-18T07:21:21.025Z,99.90
2023-08-18T07:23:49.786Z,99.90
2023-08-18T07:26:19.955Z,99.90
2023-08-18T07:28:48.606Z,99.90
2023-08-18T07:31:17.314Z,99.90
2023-08-18T07:33:46.318Z,99.90
2023-08-18T07:36:15.573Z,99.90
2023-08-18T07:38:44.223Z,99.90
2023-08-18T07:41:12.844Z,99.90
2023-08-18T07:43:43.275Z,99.90
2023-08-18T07:46:12.775Z,99.90
2023-08-18T07:48:41.784Z,99.90
2023-08-18T07:51:10.434Z,99.90
2023-08-18T07:53:39.093Z,99.90
2023-08-18T07:56:07.781Z,99.90
2023-08-18T07:58:37.069Z,99.90
2023-08-18T08:01:07.569Z,99.90
2023-08-18T08:03:37.321Z,99.90
2023-08-18T08:06:06.662Z,99.90
2023-08-18T08:08:35.778Z,99.90
2023-08-18T08:11:04.832Z,99.90
2023-08-18T08:13:33.452Z,99.90
2023-08-18T08:16:02.197Z,99.90
2023-08-18T08:18:33.800Z,99.90
2023-08-18T08:21:02.981Z,99.90
2023-08-18T08:23:31.662Z,99.90
2023-08-18T08:26:00.454Z,99.90
2023-08-18T08:28:29.298Z,99.90
2023-08-18T08:30:57.930Z,99.90
2023-08-18T08:33:26.685Z,99.90
2023-08-18T08:35:56.795Z,99.90
2023-08-18T08:38:25.543Z,99.90
2023-08-18T08:40:56.310Z,99.90
2023-08-18T08:43:25.194Z,99.90
2023-08-18T08:45:54.886Z,99.90
2023-08-18T08:48:24.365Z,99.90
2023-08-18T08:50:55.712Z,99.90
2023-08-18T08:53:30.467Z,99.90
2023-08-18T08:56:01.062Z,99.90
2023-08-18T08:58:33.322Z,99.90
2023-08-18T09:01:03.139Z,99.90
2023-08-18T09:03:31.953Z,99.90
2023-08-18T09:06:00.748Z,99.90
2023-08-18T09:08:30.967Z,99.90
2023-08-18T09:11:00.022Z,99.90
2023-08-18T09:13:28.784Z,99.90
2023-08-18T09:15:59.181Z,99.90
2023-08-18T09:18:27.938Z,99.90
2023-08-18T09:20:56.998Z,99.90
2023-08-18T09:23:27.550Z,99.90
2023-08-18T09:26:00.037Z,99.90
2023-08-18T09:28:30.217Z,99.90
2023-08-18T09:30:59.507Z,99.90
2023-08-18T09:33:34.408Z,99.90
2023-08-18T09:36:03.543Z,99.90
2023-08-18T09:38:40.398Z,99.90
2023-08-18T09:41:10.728Z,99.90
2023-08-18T09:43:40.038Z,99.90
2023-08-18T09:46:10.020Z,99.90
2023-08-18T09:48:39.565Z,99.90
2023-08-18T09:51:08.713Z,99.90
2023-08-18T09:53:37.574Z,99.90
2023-08-18T09:56:10.685Z,99.90
2023-08-18T09:58:44.615Z,99.90
2023-08-18T10:01:13.950Z,99.90
2023-08-18T10:03:44.092Z,99.90
2023-08-18T10:06:13.313Z,99.90
2023-08-18T10:08:42.581Z,99.90
2023-08-18T10:11:11.655Z,99.90
2023-08-18T10:13:42.083Z,99.90
2023-08-18T10:16:10.869Z,99.90
2023-08-18T10:18:40.241Z,99.90
2023-08-18T10:21:11.584Z,99.90
2023-08-18T10:23:43.066Z,99.90
2023-08-18T10:26:11.753Z,99.90
2023-08-18T10:28:42.142Z,99.90
2023-08-18T10:31:12.826Z,99.90
2023-08-18T10:33:45.246Z,99.90
2023-08-18T10:36:16.389Z,99.90
2023-08-18T10:38:45.315Z,99.90
2023-08-18T10:41:13.922Z,99.90
2023-08-18T10:43:49.154Z,99.90
2023-08-18T10:46:18.398Z,99.90
2023-08-18T10:48:47.804Z,99.90
2023-08-18T10:51:16.766Z,99.90
2023-08-18T10:53:45.445Z,99.90
2023-08-18T10:56:14.238Z,99.90
2023-08-18T10:58:43.430Z,99.90
2023-08-18T11:01:13.763Z,99.90
2023-08-18T11:03:42.582Z,99.90
2023-08-18T11:06:11.243Z,99.90
2023-08-18T11:08:40.597Z,99.90
2023-08-18T11:11:09.788Z,99.90
2023-08-18T11:13:38.416Z,99.90
2023-08-18T11:16:07.204Z,99.90
2023-08-18T11:18:37.569Z,99.90
2023-08-18T11:21:06.856Z,99.90
2023-08-18T11:23:35.702Z,96.90
2023-08-18T11:26:05.214Z,83.70
2023-08-18T11:28:34.237Z,85.30
2023-08-18T11:31:06.913Z,90.70
2023-08-18T11:33:37.276Z,99.90
2023-08-18T11:36:07.073Z,99.90
2023-08-18T11:38:36.074Z,99.90
2023-08-18T11:41:05.026Z,99.90
2023-08-18T11:43:33.884Z,99.90
2023-08-18T11:46:02.557Z,99.90
2023-08-18T11:48:31.624Z,99.90
2023-08-18T11:51:02.040Z,99.90
2023-08-18T11:53:31.559Z,99.90
2023-08-18T11:59:28.095Z,99.90
2023-08-18T12:01:56.679Z,99.90
2023-08-18T12:04:25.650Z,99.90
2023-08-18T12:06:56.633Z,99.90
2023-08-18T12:10:15.284Z,99.90
2023-08-18T12:12:44.913Z,99.90
2023-08-18T12:15:18.098Z,99.90
2023-08-18T12:17:51.064Z,99.90
2023-08-18T12:23:52.536Z,99.90
2023-08-18T12:26:27.937Z,99.90
2023-08-18T12:28:57.626Z,99.90
2023-08-18T12:31:27.259Z,99.90
2023-08-18T12:33:57.568Z,99.90
2023-08-18T12:36:27.307Z,99.90
2023-08-18T12:38:58.108Z,99.90
2023-08-18T12:41:29.170Z,99.90
2023-08-18T12:43:58.742Z,99.90
2023-08-18T12:46:28.357Z,99.90
2023-08-18T12:49:05.541Z,99.90
2023-08-18T12:51:37.659Z,91.00
2023-08-18T12:54:09.282Z,82.50
2023-08-18T12:56:56.762Z,71.30
2023-08-18T12:59:25.725Z,70.80
2023-08-18T13:01:54.778Z,66.20
2023-08-18T13:04:23.504Z,58.50
2023-08-18T13:06:52.228Z,57.40
2023-08-18T13:09:24.184Z,54.40
2023-08-18T13:11:52.966Z,50.90
2023-08-18T13:14:25.871Z,53.60
2023-08-18T13:19:27.257Z,52.50
2023-08-18T13:21:58.886Z,52.20
2023-08-18T13:24:29.430Z,49.80
2023-08-18T13:26:58.532Z,46.10
2023-08-18T13:29:27.201Z,47.50
2023-08-18T13:31:55.926Z,47.10
2023-08-18T13:34:24.866Z,49.20
2023-08-18T13:36:55.651Z,49.30
2023-08-18T13:39:24.886Z,47.20
2023-08-18T13:41:55.189Z,45.20
2023-08-18T13:44:23.880Z,48.10
2023-08-18T13:46:52.732Z,48.80
2023-08-18T13:49:21.390Z,50.30
2023-08-18T13:51:50.067Z,48.90
2023-08-18T13:54:18.800Z,46.70
2023-08-18T13:56:47.454Z,46.30
2023-08-18T13:59:17.862Z,44.30
2023-08-18T14:01:46.584Z,44.10
2023-08-18T14:04:15.392Z,46.30
2023-08-18T14:06:46.227Z,44.40
2023-08-18T14:09:15.516Z,46.20
2023-08-18T14:11:44.386Z,44.80
2023-08-18T14:14:13.200Z,47.70
2023-08-18T14:16:43.599Z,47.20
2023-08-18T14:19:12.350Z,48.90
2023-08-18T14:21:42.660Z,49.70
2023-08-18T14:24:11.378Z,51.40
2023-08-18T14:26:40.485Z,53.00
2023-08-18T14:29:09.154Z,53.60
2023-08-18T14:31:37.798Z,50.50
2023-08-18T14:34:08.095Z,51.70
2023-08-18T14:36:36.738Z,52.70
2023-08-18T14:39:06.588Z,56.00
2023-08-18T14:41:35.308Z,61.00
2023-08-18T14:44:04.357Z,60.60
2023-08-18T14:46:32.999Z,61.70
2023-08-18T14:49:05.464Z,61.30
2023-08-18T14:51:35.784Z,64.10
2023-08-18T14:54:05.106Z,65.20
2023-08-18T14:56:33.758Z,68.30
2023-08-18T14:59:02.353Z,66.60
2023-08-18T15:01:32.917Z,76.50
2023-08-18T15:04:01.563Z,65.90
2023-08-18T15:06:30.155Z,60.90
2023-08-18T15:09:00.354Z,65.30
2023-08-18T15:11:28.708Z,64.40
2023-08-18T15:13:56.985Z,64.20
2023-08-18T15:16:25.289Z,67.80
2023-08-18T15:18:53.705Z,72.20
2023-08-18T15:21:21.990Z,67.20
2023-08-18T15:23:52.324Z,66.90
2023-08-18T15:26:22.095Z,64.60
2023-08-18T15:28:50.395Z,63.60
2023-08-18T15:31:19.678Z,62.50
2023-08-18T15:33:48.029Z,63.50
2023-08-18T15:36:16.314Z,62.10
2023-08-18T15:38:44.672Z,60.90
2023-08-18T15:41:13.041Z,62.20
2023-08-18T15:43:43.018Z,68.30
2023-08-18T15:46:11.531Z,78.50
2023-08-18T15:48:43.347Z,92.40
2023-08-18T15:51:12.352Z,99.90
2023-08-18T15:53:41.025Z,96.80
2023-08-18T15:56:09.864Z,99.10
2023-08-18T15:58:39.456Z,97.80
2023-08-18T16:01:09.178Z,99.90
2023-08-18T16:03:37.490Z,99.90
2023-08-18T16:06:06.501Z,99.90
2023-08-18T16:08:35.626Z,99.90
2023-08-18T16:11:03.957Z,99.90
2023-08-18T16:13:32.275Z,99.90
2023-08-18T16:16:02.656Z,99.90
2023-08-18T16:18:32.479Z,99.90
2023-08-18T16:21:00.765Z,99.90
2023-08-18T16:23:29.067Z,99.90
2023-08-18T16:25:57.387Z,99.90
2023-08-18T16:28:25.708Z,99.90
2023-08-18T16:30:54.124Z,99.90
2023-08-18T16:33:23.507Z,99.90
2023-08-18T16:35:53.285Z,99.90
2023-08-18T16:38:21.579Z,99.90
2023-08-18T16:40:51.631Z,99.90
2023-08-18T16:43:20.096Z,99.90
2023-08-18T16:45:48.397Z,99.90
2023-08-18T16:48:17.018Z,99.90
2023-08-18T16:50:46.876Z,99.90
2023-08-18T16:53:16.565Z,99.90
2023-08-18T16:55:45.153Z,99.90
2023-08-18T16:58:13.516Z,99.90
2023-08-18T17:00:42.351Z,99.90
2023-08-18T17:03:10.774Z,99.90
2023-08-18T17:05:39.353Z,99.90
2023-08-18T17:08:08.048Z,99.90
2023-08-18T17:10:37.827Z,99.90
2023-08-18T17:13:07.893Z,99.90
2023-08-18T17:15:36.346Z,99.90
2023-08-18T17:18:05.063Z,99.90
2023-08-18T17:20:33.561Z,99.90
2023-08-18T17:23:01.914Z,99.90
2023-08-18T17:25:34.831Z,99.90
2023-08-18T17:28:06.358Z,99.90
2023-08-18T17:30:34.811Z,99.90
2023-08-18T17:33:03.326Z,99.90
2023-08-18T17:35:32.053Z,99.90
2023-08-18T17:38:01.337Z,99.90
2023-08-18T17:40:29.654Z,99.90
2023-08-18T17:43:00.423Z,99.90
2023-08-18T17:45:31.610Z,99.90
2023-08-18T17:48:00.095Z,99.90
2023-08-18T17:50:28.436Z,99.90
2023-08-18T17:52:58.064Z,99.90
2023-08-18T17:55:26.861Z,99.90
2023-08-18T17:57:55.176Z,99.90
2023-08-18T18:00:23.477Z,99.90
2023-08-18T18:02:53.523Z,99.90
2023-08-18T18:05:21.945Z,99.90
2023-08-18T18:07:50.308Z,99.90
2023-08-18T18:10:18.809Z,99.90
2023-08-18T18:12:47.213Z,99.90
2023-08-18T18:15:15.626Z,99.90
2023-08-18T18:17:44.085Z,99.90
2023-08-18T18:20:14.352Z,99.90
2023-08-18T18:22:42.956Z,99.90
2023-08-18T18:25:11.291Z,99.90
2023-08-18T18:27:40.348Z,99.90
2023-08-18T18:30:10.676Z,99.90
2023-08-18T18:32:39.148Z,99.90
2023-08-18T18:35:07.903Z,99.90
2023-08-18T18:37:37.726Z,99.90
2023-08-18T18:40:06.856Z,99.90
2023-08-18T18:42:35.188Z,99.90
2023-08-18T18:45:03.454Z,99.90
2023-08-18T18:47:32.599Z,99.90
2023-08-18T18:50:01.237Z,99.90
2023-08-18T18:52:31.005Z,99.90
2023-08-18T18:55:01.516Z,99.90
2023-08-18T18:57:30.131Z,99.90
2023-08-18T18:59:58.579Z,99.90
2023-08-18T19:02:28.947Z,99.90
2023-08-18T19:04:57.458Z,99.90
2023-08-18T19:07:27.380Z,99.90
2023-08-18T19:09:56.004Z,99.90
2023-08-18T19:12:25.847Z,99.90
2023-08-18T19:14:54.274Z,99.90
2023-08-18T19:17:24.843Z,99.90
2023-08-18T19:19:53.254Z,99.90
2023-08-18T19:22:22.534Z,99.90
2023-08-18T19:24:55.361Z,99.90
2023-08-18T19:27:26.223Z,99.90
2023-08-18T19:29:59.384Z,99.90
2023-08-18T19:32:28.368Z,99.90
2023-08-18T19:34:58.242Z,99.90
2023-08-18T19:37:26.564Z,99.90
2023-08-18T19:39:54.867Z,99.90
2023-08-18T19:42:23.267Z,99.90
2023-08-18T19:44:51.605Z,99.90
2023-08-18T19:47:21.398Z,99.90
2023-08-18T19:49:50.043Z,99.90
2023-08-18T19:52:18.354Z,99.90
2023-08-18T19:54:49.585Z,99.90
2023-08-18T19:57:24.504Z,99.90
2023-08-18T19:59:52.902Z,99.90
2023-08-18T20:02:22.797Z,99.90
2023-08-18T20:04:51.274Z,99.90
2023-08-18T20:07:19.620Z,99.90
2023-08-18T20:09:47.961Z,99.90
2023-08-18T20:12:16.229Z,99.90
2023-08-18T20:14:44.696Z,99.90
2023-08-18T20:17:13.398Z,99.90
2023-08-18T20:19:43.328Z,99.90
2023-08-18T20:22:11.716Z,99.90
2023-08-18T20:24:40.013Z,99.90
2023-08-18T20:27:08.688Z,99.90
2023-08-18T20:29:38.010Z,99.90
2023-08-18T20:32:06.870Z,99.90
2023-08-18T20:34:35.225Z,99.90
2023-08-18T20:37:04.963Z,99.90
2023-08-18T20:39:33.243Z,99.90
2023-08-18T20:42:01.525Z,99.90
2023-08-18T20:44:29.939Z,99.90
2023-08-18T20:46:58.299Z,99.90
2023-08-18T20:49:26.713Z,99.90
2023-08-18T20:51:55.026Z,99.90
2023-08-18T20:54:24.852Z,99.90
2023-08-18T20:56:53.171Z,99.90
2023-08-18T20:59:21.476Z,99.90
2023-08-18T21:01:52.558Z,99.90
2023-08-18T21:04:21.007Z,99.90
2023-08-18T21:06:49.338Z,99.90
2023-08-18T21:09:17.685Z,99.90
2023-08-18T21:11:47.450Z,99.90
2023-08-18T21:14:15.819Z,99.90
2023-08-18T21:16:44.187Z,99.90
2023-08-18T21:19:12.532Z,99.90
2023-08-18T21:21:40.894Z,99.90
2023-08-18T21:24:09.633Z,99.90
2023-08-18T21:26:39.053Z,99.90
2023-08-18T21:29:08.776Z,99.90
2023-08-18T21:31:37.173Z,99.90
2023-08-18T21:34:05.676Z,99.90
2023-08-18T21:36:34.145Z,99.90
2023-08-18T21:39:06.458Z,99.90
2023-08-18T21:41:34.925Z,99.90
2023-08-18T21:44:03.741Z,99.90
2023-08-18T21:46:34.576Z,99.90
2023-08-18T21:49:03.007Z,99.90
2023-08-18T21:51:31.480Z,99.90
2023-08-18T21:53:59.828Z,99.90
2023-08-18T21:56:28.165Z,99.90
2023-08-18T21:58:56.439Z,99.90
2023-08-18T22:01:26.520Z,99.90
2023-08-18T22:03:57.387Z,99.90
2023-08-18T22:06:27.561Z,99.90
2023-08-18T22:08:56.208Z,99.90
2023-08-18T22:11:24.600Z,99.90
2023-08-18T22:13:52.970Z,99.90
2023-08-18T22:16:21.428Z,99.90
2023-08-18T22:18:49.809Z,99.90
2023-08-18T22:21:19.500Z,99.90
2023-08-18T22:23:47.872Z,99.90
2023-08-18T22:26:16.712Z,99.90
2023-08-18T22:28:45.094Z,99.90
2023-08-18T22:31:13.475Z,99.90
2023-08-18T22:33:42.233Z,99.90
2023-08-18T22:36:10.775Z,99.90
2023-08-18T22:38:41.096Z,99.90
2023-08-18T22:41:09.438Z,99.90
2023-08-18T22:43:39.628Z,99.90
2023-08-18T22:46:07.940Z,99.90
2023-08-18T22:48:36.415Z,99.90
2023-08-18T22:51:04.797Z,99.90
2023-08-18T22:53:33.121Z,99.90
2023-08-18T22:56:03.282Z,99.90
2023-08-18T22:58:31.582Z,99.90
2023-08-18T23:00:59.869Z,99.90
2023-08-18T23:03:28.245Z,99.90
2023-08-18T23:05:56.627Z,99.90
2023-08-18T23:08:24.999Z,99.90
2023-08-18T23:10:55.430Z,99.90
2023-08-18T23:13:25.309Z,99.90
2023-08-18T23:15:53.656Z,99.90
2023-08-18T23:18:22.871Z,99.90
2023-08-18T23:20:51.175Z,99.90
2023-08-18T23:23:19.463Z,99.90
2023-08-18T23:25:47.943Z,99.90
2023-08-18T23:28:16.215Z,99.90
2023-08-18T23:30:45.997Z,99.90
2023-08-18T23:33:15.140Z,99.90
2023-08-18T23:35:43.658Z,99.90
2023-08-18T23:38:12.019Z,99.90
2023-08-18T23:40:40.920Z,99.90
2023-08-18T23:43:09.826Z,99.90
2023-08-18T23:45:38.151Z,99.90
2023-08-18T23:48:08.550Z,99.90
2023-08-18T23:50:36.931Z,99.90
2023-08-18T23:53:05.794Z,99.90
2023-08-18T23:55:34.080Z,99.90
2023-08-18T23:58:02.418Z,99.90
